Estación Meteorológica Peña el Pijo (Robertgarden) [ 05/25/18 12:54:00 CEST ]

Fecha Hora Presion(HPa) Temp (°C) Humedad % Rocio (°C) Viento ( m/s) Direccion Lluvia 1Hora(mm) Lluvia 24H(mm) LLuvia Total(mm)
2018-Mar-09 01:01:59 1005.000 10.1 81 7.0       8.80 129.50
2018-Mar-09 02:01:47 1005.100 10.3 82 7.3       8.80 129.50
2018-Mar-09 03:09:04 1005.400 9.6 82 6.6       8.28 129.50
2018-Mar-09 04:01:49 1005.300 7.9 83 5.2       6.21 129.50
2018-Mar-09 05:02:06 1005.200 7.1 84 4.6       4.14 129.50
2018-Mar-09 06:01:53 1004.900 5.4 85 3.0       2.07 129.50
2018-Mar-09 07:01:53 1004.500 5.8 86 3.6       0.51 129.50
2018-Mar-09 08:01:47 1004.000 6.1 85 3.8       0.51 129.50
2018-Mar-09 09:01:38 1004.100 7.4 79 4.0         129.50
2018-Mar-09 10:01:52 1004.000 13.6 44 1.5 1.6 NNE     129.50
2018-Mar-09 11:01:46 1004.100 17.9 33 1.3         129.50
2018-Mar-09 12:02:01 1004.400 19.1 31 1.6         129.50
2018-Mar-09 13:01:56 1003.900 19.2 34 2.9         129.50
2018-Mar-09 14:01:40 1003.000 19.2 35 3.3         129.50
2018-Mar-09 15:01:47 1002.500 21.4 35 5.2         129.50
2018-Mar-09 16:01:56 1001.500 21.5 36 5.7         129.50
2018-Mar-09 17:01:47 1001.700 19.5 39 5.1 1.7 WNW     129.50
2018-Mar-09 18:01:56 1002.600 16.5 48 5.4         129.50
2018-Mar-09 19:01:55 1003.300 12.5 65 6.1         129.50
2018-Mar-09 20:01:43 1002.700 11.8 68 6.1         129.50
2018-Mar-09 21:01:39 1002.600 11.6 67 5.7         129.50
2018-Mar-09 22:01:46 1002.600 11.4 67 5.5         129.50
2018-Mar-09 23:01:44 1002.300 10.0 70 4.8         129.50

Temperatura Máxima:21°    Temperatura Mínima:
Presión Máxima:1005.400 Hpa    Presión Mínima:1001.500 Hpa


Volver